イエローナイフ の空港の天気 - METARとTAF

イエローナイフ空港 ( CYZF / YZF ) - カナダ ノースウエスト準州イエローナイフ
飛行場実況気象(Metar)
観測時間02/17 07:00 MST (02/17 14:00 UTC)
風向・風速東 3m/s
視程10km以上
天気現象
全天の4割程度の雲 雲底高度 2440m
気温-31℃
湿度68%
気圧1044.1hPa
METARCYZF 171400Z 09006KT 15SM SCT080 M31/M35 A3072 RMK AC3 SLP441
過去の天気等 Google飛行場航空写真 Wunderground天気予報

過去48時間のMETAR

飛行場予報(TAF)
発表時間: 2/17 04:38 MST (2/17 11:38 UTC)
予報対象時間: 17日5時 MST ~ 18日5時 MST
風向・風速北東 3m/s
視程10km以上
全天の4割程度の雲 雲底高度 370m
全天の4割程度の雲 雲底高度 2440m
17日5時 MST ~ 17日11時 MST に一時的に
全天の4割程度の雲 雲底高度 370m
全天の8割程度の雲 雲底高度 2440m
17日12時 MST ~ 17日14時 MST に徐々に
風向・風速南南東 4m/s
TAF CYZF 171138Z 1712/1812 05006KT P6SM SCT012 SCT080
TEMPO 1712/1718 SCT012 BKN080
BECMG 1719/1721 15008KT RMK NXT FCST BY 171800Z